Mt Bachelor previous 24hr weather report
        updated 4/20/2014 21:08
Year Month Date Time Base Pmx Smt Pmx Smt Pmx Pmx Pmx Smt Smt Smt Srx Srx Srx
Temp Temp Temp RH RH wind wind wind wind wind wind wind wind wind
6300' 7800' 9000' 7800' 9000' avg max dir avg max dir avg max dir
1 2014 4 20 4/20/2014 2100 45.7 40.5 36 12 20 117
2 2014 4 20 4/20/2014 2000 42.8 40.2 36 8 15 115
3 2014 4 20 4/20/2014 1900 46 43 36 8 14 145
4 2014 4 20 4/20/2014 1800 49.3 44.2 33 10 17 174
5 2014 4 20 4/20/2014 1700 49.1 44.6 33 10 16 179
6 2014 4 20 4/20/2014 1600 48.8 43.1 49 7 14 171
7 2014 4 20 4/20/2014 1500 50.9 43.2 48 9 14 180
8 2014 4 20 4/20/2014 1400 -19.1 42.1 51 8 17 180
9 2014 4 20 4/20/2014 1300 49.3 40.2 47 11 22 167
10 2014 4 20 4/20/2014 1200 46.6 37.3 45 13 24 129
11 2014 4 20 4/20/2014 1100 44.6 36.8 35 13 17 121
12 2014 4 20 4/20/2014 1000 37.3 34.4 38 6 9 158
13 2014 4 20 4/20/2014 900 33.1 31.8 47 8 13 129
14 2014 4 20 4/20/2014 800 26.1 27.9 52 8 11 135
15 2014 4 20 4/20/2014 700 24 24.9 34 9 11 136
16 2014 4 20 4/20/2014 600 23.6 20.9 59 9 13 145
17 2014 4 20 4/20/2014 500 26.3 19.5 87 7 11 135
18 2014 4 20 4/20/2014 400 27.7 21.8 93 6 8 132
19 2014 4 20 4/20/2014 300 27.7 21.9 94 6 8 112
20 2014 4 20 4/20/2014 200 28 22.8 95 6 9 127
21 2014 4 20 4/20/2014 100 27.9 23.3 20.1 95 96 6 8 121 19 22 167
22 2014 4 19 4/19/2014 2400 28.3 23.7 20.8 95 96 8 11 137 19 21 163
23 2014 4 19 4/19/2014 2300 28.9 24.6 21 95 96 9 14 128 21 26 153
24 2014 4 19 4/19/2014 2200 29.1 24.8 21.6 95 96 11 14 149 30 36 109
1 2014 4 19 4/19/2014 2100 29.5 25.4 21.9 95 97 14 19 192 23 31 98